sensor_id;sensor_type;location;lat;lon;timestamp;P1;durP1;ratioP1;P2;durP2;ratioP2
61473;SDS011;53694;49.784;30.150;2023-06-24T00:00:42;12.56;;;8.93;;
61473;SDS011;53694;49.784;30.150;2023-06-24T00:01:44;13.60;;;9.27;;
61473;SDS011;53694;49.784;30.150;2023-06-24T00:02:46;16.43;;;10.27;;
61473;SDS011;53694;49.784;30.150;2023-06-24T00:03:47;14.99;;;10.21;;
61473;SDS011;53694;49.784;30.150;2023-06-24T00:04:49;13.56;;;9.66;;
61473;SDS011;53694;49.784;30.150;2023-06-24T00:05:51;14.66;;;8.94;;
61473;SDS011;53694;49.784;30.150;2023-06-24T00:06:53;14.64;;;9.61;;
61473;SDS011;53694;49.784;30.150;2023-06-24T00:07:55;14.52;;;8.61;;
61473;SDS011;53694;49.784;30.150;2023-06-24T00:08:56;12.54;;;8.89;;
61473;SDS011;53694;49.784;30.150;2023-06-24T00:09:58;12.70;;;8.97;;
61473;SDS011;53694;49.784;30.150;2023-06-24T00:11:02;17.12;;;9.68;;
61473;SDS011;53694;49.784;30.150;2023-06-24T00:12:04;15.19;;;10.41;;
61473;SDS011;53694;49.784;30.150;2023-06-24T00:13:07;13.79;;;10.11;;
61473;SDS011;53694;49.784;30.150;2023-06-24T00:14:08;15.93;;;10.38;;
61473;SDS011;53694;49.784;30.150;2023-06-24T00:15:10;14.83;;;10.76;;
61473;SDS011;53694;49.784;30.150;2023-06-24T00:16:12;12.22;;;9.31;;
61473;SDS011;53694;49.784;30.150;2023-06-24T00:17:14;14.76;;;9.51;;
61473;SDS011;53694;49.784;30.150;2023-06-24T00:18:16;14.44;;;9.45;;
61473;SDS011;53694;49.784;30.150;2023-06-24T00:19:20;14.63;;;8.75;;
61473;SDS011;53694;49.784;30.150;2023-06-24T00:20:26;15.22;;;8.94;;
61473;SDS011;53694;49.784;30.150;2023-06-24T00:21:28;10.56;;;8.46;;
61473;SDS011;53694;49.784;30.150;2023-06-24T00:22:29;12.47;;;9.08;;
61473;SDS011;53694;49.784;30.150;2023-06-24T00:23:31;12.45;;;8.11;;
61473;SDS011;53694;49.784;30.150;2023-06-24T00:24:32;13.44;;;7.26;;
61473;SDS011;53694;49.784;30.150;2023-06-24T00:25:34;13.37;;;8.32;;
61473;SDS011;53694;49.784;30.150;2023-06-24T00:26:35;15.44;;;8.51;;
61473;SDS011;53694;49.784;30.150;2023-06-24T00:27:37;14.19;;;8.26;;
61473;SDS011;53694;49.784;30.150;2023-06-24T00:28:38;12.93;;;7.50;;
61473;SDS011;53694;49.784;30.150;2023-06-24T00:29:40;11.14;;;8.16;;
61473;SDS011;53694;49.784;30.150;2023-06-24T00:30:41;14.86;;;8.29;;
61473;SDS011;53694;49.784;30.150;2023-06-24T00:31:43;12.26;;;7.28;;
61473;SDS011;53694;49.784;30.150;2023-06-24T00:32:44;14.61;;;7.66;;
61473;SDS011;53694;49.784;30.150;2023-06-24T00:33:46;11.48;;;7.61;;
61473;SDS011;53694;49.784;30.150;2023-06-24T00:34:48;16.84;;;9.88;;
61473;SDS011;53694;49.784;30.150;2023-06-24T00:35:49;12.89;;;7.90;;
61473;SDS011;53694;49.784;30.150;2023-06-24T00:36:51;14.96;;;8.80;;
61473;SDS011;53694;49.784;30.150;2023-06-24T00:37:52;12.24;;;8.18;;
61473;SDS011;53694;49.784;30.150;2023-06-24T00:38:55;13.90;;;8.56;;
61473;SDS011;53694;49.784;30.150;2023-06-24T00:39:56;15.64;;;10.01;;
61473;SDS011;53694;49.784;30.150;2023-06-24T00:40:58;15.74;;;10.22;;
61473;SDS011;53694;49.784;30.150;2023-06-24T00:42:00;12.75;;;8.81;;
61473;SDS011;53694;49.784;30.150;2023-06-24T00:43:02;13.19;;;8.27;;
61473;SDS011;53694;49.784;30.150;2023-06-24T00:44:04;12.66;;;7.19;;
61473;SDS011;53694;49.784;30.150;2023-06-24T00:45:07;11.80;;;7.61;;
61473;SDS011;53694;49.784;30.150;2023-06-24T00:46:10;15.69;;;8.14;;
61473;SDS011;53694;49.784;30.150;2023-06-24T00:47:12;13.00;;;7.61;;
61473;SDS011;53694;49.784;30.150;2023-06-24T00:48:14;8.84;;;6.31;;
61473;SDS011;53694;49.784;30.150;2023-06-24T00:49:16;9.90;;;5.89;;
61473;SDS011;53694;49.784;30.150;2023-06-24T00:50:18;15.03;;;6.90;;
61473;SDS011;53694;49.784;30.150;2023-06-24T00:51:19;14.17;;;7.95;;
61473;SDS011;53694;49.784;30.150;2023-06-24T00:52:21;10.29;;;7.25;;
61473;SDS011;53694;49.784;30.150;2023-06-24T00:53:22;11.45;;;7.76;;
61473;SDS011;53694;49.784;30.150;2023-06-24T00:54:24;12.95;;;7.46;;
61473;SDS011;53694;49.784;30.150;2023-06-24T00:55:25;13.86;;;7.51;;
61473;SDS011;53694;49.784;30.150;2023-06-24T00:56:31;14.64;;;8.36;;
61473;SDS011;53694;49.784;30.150;2023-06-24T00:57:35;15.81;;;8.56;;
61473;SDS011;53694;49.784;30.150;2023-06-24T00:58:36;11.84;;;8.56;;
61473;SDS011;53694;49.784;30.150;2023-06-24T00:59:38;12.61;;;7.88;;
61473;SDS011;53694;49.784;30.150;2023-06-24T01:00:43;11.69;;;7.91;;
61473;SDS011;53694;49.784;30.150;2023-06-24T01:01:46;11.51;;;6.69;;
61473;SDS011;53694;49.784;30.150;2023-06-24T01:02:48;9.77;;;6.61;;
61473;SDS011;53694;49.784;30.150;2023-06-24T01:03:51;9.67;;;5.59;;
61473;SDS011;53694;49.784;30.150;2023-06-24T01:04:52;8.87;;;5.56;;
61473;SDS011;53694;49.784;30.150;2023-06-24T01:05:54;8.95;;;5.33;;
61473;SDS011;53694;49.784;30.150;2023-06-24T01:06:56;8.42;;;5.24;;
61473;SDS011;53694;49.784;30.150;2023-06-24T01:07:58;11.42;;;6.37;;
61473;SDS011;53694;49.784;30.150;2023-06-24T01:09:01;9.26;;;5.89;;
61473;SDS011;53694;49.784;30.150;2023-06-24T01:10:03;9.57;;;5.07;;
61473;SDS011;53694;49.784;30.150;2023-06-24T01:11:05;13.82;;;5.47;;
61473;SDS011;53694;49.784;30.150;2023-06-24T01:12:07;8.99;;;5.16;;
61473;SDS011;53694;49.784;30.150;2023-06-24T01:13:09;9.53;;;5.20;;
61473;SDS011;53694;49.784;30.150;2023-06-24T01:14:10;12.11;;;5.73;;
61473;SDS011;53694;49.784;30.150;2023-06-24T01:15:12;12.87;;;5.92;;
61473;SDS011;53694;49.784;30.150;2023-06-24T01:16:16;8.37;;;5.18;;
61473;SDS011;53694;49.784;30.150;2023-06-24T01:17:35;9.88;;;5.26;;
61473;SDS011;53694;49.784;30.150;2023-06-24T01:18:48;12.46;;;5.67;;
61473;SDS011;53694;49.784;30.150;2023-06-24T01:22:38;8.38;;;4.34;;
61473;SDS011;53694;49.784;30.150;2023-06-24T01:32:44;9.62;;;4.69;;
61473;SDS011;53694;49.784;30.150;2023-06-24T01:35:15;7.96;;;4.59;;
61473;SDS011;53694;49.784;30.150;2023-06-24T01:36:19;9.17;;;4.70;;
61473;SDS011;53694;49.784;30.150;2023-06-24T01:37:32;7.16;;;4.85;;
61473;SDS011;53694;49.784;30.150;2023-06-24T01:38:34;9.20;;;4.66;;
61473;SDS011;53694;49.784;30.150;2023-06-24T01:39:50;9.12;;;4.67;;
61473;SDS011;53694;49.784;30.150;2023-06-24T01:40:57;10.74;;;5.17;;
61473;SDS011;53694;49.784;30.150;2023-06-24T01:42:03;9.85;;;5.13;;
61473;SDS011;53694;49.784;30.150;2023-06-24T01:43:07;8.47;;;4.62;;
61473;SDS011;53694;49.784;30.150;2023-06-24T01:44:13;8.62;;;4.12;;
61473;SDS011;53694;49.784;30.150;2023-06-24T01:45:16;8.07;;;4.36;;
61473;SDS011;53694;49.784;30.150;2023-06-24T01:46:23;10.35;;;4.65;;
61473;SDS011;53694;49.784;30.150;2023-06-24T01:47:26;9.06;;;4.02;;
61473;SDS011;53694;49.784;30.150;2023-06-24T01:48:32;7.23;;;4.11;;
61473;SDS011;53694;49.784;30.150;2023-06-24T01:49:36;7.21;;;3.85;;
61473;SDS011;53694;49.784;30.150;2023-06-24T01:50:44;8.66;;;4.16;;
61473;SDS011;53694;49.784;30.150;2023-06-24T01:51:47;9.69;;;4.02;;
61473;SDS011;53694;49.784;30.150;2023-06-24T01:52:50;9.65;;;4.37;;
61473;SDS011;53694;49.784;30.150;2023-06-24T01:53:56;8.49;;;4.45;;
61473;SDS011;53694;49.784;30.150;2023-06-24T01:54:59;9.56;;;4.20;;
61473;SDS011;53694;49.784;30.150;2023-06-24T01:56:02;10.16;;;4.76;;
61473;SDS011;53694;49.784;30.150;2023-06-24T01:57:06;9.79;;;4.61;;
61473;SDS011;53694;49.784;30.150;2023-06-24T01:58:09;9.52;;;4.78;;
61473;SDS011;53694;49.784;30.150;2023-06-24T01:59:13;10.45;;;4.76;;
61473;SDS011;53694;49.784;30.150;2023-06-24T02:00:18;10.12;;;4.44;;
61473;SDS011;53694;49.784;30.150;2023-06-24T02:01:22;9.94;;;4.44;;
61473;SDS011;53694;49.784;30.150;2023-06-24T02:02:25;9.34;;;4.99;;
61473;SDS011;53694;49.784;30.150;2023-06-24T02:03:29;10.62;;;4.87;;
61473;SDS011;53694;49.784;30.150;2023-06-24T02:04:33;9.93;;;4.89;;
61473;SDS011;53694;49.784;30.150;2023-06-24T02:05:37;8.91;;;4.83;;
61473;SDS011;53694;49.784;30.150;2023-06-24T02:06:41;10.01;;;4.75;;
61473;SDS011;53694;49.784;30.150;2023-06-24T02:07:44;8.49;;;4.53;;
61473;SDS011;53694;49.784;30.150;2023-06-24T02:08:48;8.69;;;4.49;;
61473;SDS011;53694;49.784;30.150;2023-06-24T02:09:51;11.54;;;4.58;;
61473;SDS011;53694;49.784;30.150;2023-06-24T02:10:54;8.75;;;4.14;;
61473;SDS011;53694;49.784;30.150;2023-06-24T02:11:57;8.84;;;4.25;;
61473;SDS011;53694;49.784;30.150;2023-06-24T02:13:00;7.75;;;3.91;;
61473;SDS011;53694;49.784;30.150;2023-06-24T02:14:02;9.72;;;4.04;;
61473;SDS011;53694;49.784;30.150;2023-06-24T02:15:06;7.21;;;3.99;;
61473;SDS011;53694;49.784;30.150;2023-06-24T02:16:11;10.60;;;6.40;;
61473;SDS011;53694;49.784;30.150;2023-06-24T02:17:14;15.09;;;11.72;;
61473;SDS011;53694;49.784;30.150;2023-06-24T02:18:16;11.71;;;6.07;;
61473;SDS011;53694;49.784;30.150;2023-06-24T02:19:19;11.39;;;5.28;;
61473;SDS011;53694;49.784;30.150;2023-06-24T02:20:21;8.92;;;5.42;;
61473;SDS011;53694;49.784;30.150;2023-06-24T02:21:24;9.85;;;6.06;;
61473;SDS011;53694;49.784;30.150;2023-06-24T02:22:27;9.79;;;5.39;;
61473;SDS011;53694;49.784;30.150;2023-06-24T02:23:30;11.51;;;5.99;;
61473;SDS011;53694;49.784;30.150;2023-06-24T02:24:32;9.81;;;5.15;;
61473;SDS011;53694;49.784;30.150;2023-06-24T02:25:34;10.13;;;4.67;;
61473;SDS011;53694;49.784;30.150;2023-06-24T02:26:37;9.14;;;4.33;;
61473;SDS011;53694;49.784;30.150;2023-06-24T02:27:39;10.32;;;4.60;;
61473;SDS011;53694;49.784;30.150;2023-06-24T02:28:41;10.06;;;4.56;;
61473;SDS011;53694;49.784;30.150;2023-06-24T02:29:45;10.70;;;4.95;;
61473;SDS011;53694;49.784;30.150;2023-06-24T02:30:48;8.43;;;4.67;;
61473;SDS011;53694;49.784;30.150;2023-06-24T02:31:51;9.97;;;4.81;;
61473;SDS011;53694;49.784;30.150;2023-06-24T02:32:52;9.39;;;4.47;;
61473;SDS011;53694;49.784;30.150;2023-06-24T02:33:54;12.07;;;5.06;;
61473;SDS011;53694;49.784;30.150;2023-06-24T02:34:57;7.38;;;4.03;;
61473;SDS011;53694;49.784;30.150;2023-06-24T02:35:58;8.38;;;3.67;;
61473;SDS011;53694;49.784;30.150;2023-06-24T02:37:00;8.36;;;4.19;;
61473;SDS011;53694;49.784;30.150;2023-06-24T02:38:02;12.94;;;4.68;;
61473;SDS011;53694;49.784;30.150;2023-06-24T02:39:04;10.15;;;3.94;;
61473;SDS011;53694;49.784;30.150;2023-06-24T02:40:06;8.15;;;3.93;;
61473;SDS011;53694;49.784;30.150;2023-06-24T02:41:09;8.60;;;4.09;;
61473;SDS011;53694;49.784;30.150;2023-06-24T02:42:10;7.06;;;3.56;;
61473;SDS011;53694;49.784;30.150;2023-06-24T02:43:13;7.43;;;3.76;;
61473;SDS011;53694;49.784;30.150;2023-06-24T02:44:15;7.82;;;3.69;;
61473;SDS011;53694;49.784;30.150;2023-06-24T02:45:17;9.21;;;3.99;;
61473;SDS011;53694;49.784;30.150;2023-06-24T02:46:18;8.71;;;4.11;;
61473;SDS011;53694;49.784;30.150;2023-06-24T02:47:22;9.53;;;3.99;;
61473;SDS011;53694;49.784;30.150;2023-06-24T02:48:25;10.86;;;4.91;;
61473;SDS011;53694;49.784;30.150;2023-06-24T02:49:27;9.98;;;4.37;;
61473;SDS011;53694;49.784;30.150;2023-06-24T02:50:29;9.96;;;4.83;;
61473;SDS011;53694;49.784;30.150;2023-06-24T02:51:31;9.46;;;4.59;;
61473;SDS011;53694;49.784;30.150;2023-06-24T02:52:33;10.54;;;5.01;;
61473;SDS011;53694;49.784;30.150;2023-06-24T02:53:36;8.43;;;4.81;;
61473;SDS011;53694;49.784;30.150;2023-06-24T02:54:39;7.46;;;4.36;;
61473;SDS011;53694;49.784;30.150;2023-06-24T02:55:42;9.33;;;4.46;;
61473;SDS011;53694;49.784;30.150;2023-06-24T02:56:45;8.19;;;4.29;;
61473;SDS011;53694;49.784;30.150;2023-06-24T02:57:47;8.47;;;4.06;;
61473;SDS011;53694;49.784;30.150;2023-06-24T02:58:49;10.77;;;5.11;;
61473;SDS011;53694;49.784;30.150;2023-06-24T02:59:51;9.15;;;4.41;;
61473;SDS011;53694;49.784;30.150;2023-06-24T03:00:53;12.01;;;4.99;;
61473;SDS011;53694;49.784;30.150;2023-06-24T03:01:55;12.86;;;5.54;;
61473;SDS011;53694;49.784;30.150;2023-06-24T03:02:57;9.52;;;4.83;;
61473;SDS011;53694;49.784;30.150;2023-06-24T03:03:59;10.85;;;4.89;;
61473;SDS011;53694;49.784;30.150;2023-06-24T03:05:01;11.31;;;5.06;;
61473;SDS011;53694;49.784;30.150;2023-06-24T03:06:04;11.44;;;4.97;;
61473;SDS011;53694;49.784;30.150;2023-06-24T03:07:05;9.22;;;5.62;;
61473;SDS011;53694;49.784;30.150;2023-06-24T03:08:07;8.35;;;4.92;;
61473;SDS011;53694;49.784;30.150;2023-06-24T03:09:09;11.21;;;5.56;;
61473;SDS011;53694;49.784;30.150;2023-06-24T03:10:11;10.01;;;5.14;;
61473;SDS011;53694;49.784;30.150;2023-06-24T03:11:13;11.35;;;4.56;;
61473;SDS011;53694;49.784;30.150;2023-06-24T03:12:15;9.07;;;4.83;;
61473;SDS011;53694;49.784;30.150;2023-06-24T03:13:16;8.92;;;4.33;;
61473;SDS011;53694;49.784;30.150;2023-06-24T03:14:18;8.36;;;3.99;;
61473;SDS011;53694;49.784;30.150;2023-06-24T03:15:19;7.86;;;4.25;;
61473;SDS011;53694;49.784;30.150;2023-06-24T03:16:21;8.78;;;4.24;;
61473;SDS011;53694;49.784;30.150;2023-06-24T03:17:22;8.82;;;3.32;;
61473;SDS011;53694;49.784;30.150;2023-06-24T03:18:24;8.03;;;3.87;;
61473;SDS011;53694;49.784;30.150;2023-06-24T03:19:26;10.16;;;4.40;;
61473;SDS011;53694;49.784;30.150;2023-06-24T03:20:28;8.04;;;4.41;;
61473;SDS011;53694;49.784;30.150;2023-06-24T03:21:29;8.06;;;4.30;;
61473;SDS011;53694;49.784;30.150;2023-06-24T03:22:31;9.10;;;4.62;;
61473;SDS011;53694;49.784;30.150;2023-06-24T03:23:32;9.68;;;4.57;;
61473;SDS011;53694;49.784;30.150;2023-06-24T03:24:34;13.09;;;4.86;;
61473;SDS011;53694;49.784;30.150;2023-06-24T03:25:35;11.62;;;5.05;;
61473;SDS011;53694;49.784;30.150;2023-06-24T03:26:38;9.41;;;4.29;;
61473;SDS011;53694;49.784;30.150;2023-06-24T03:27:40;9.35;;;4.14;;
61473;SDS011;53694;49.784;30.150;2023-06-24T03:28:41;9.43;;;4.68;;
61473;SDS011;53694;49.784;30.150;2023-06-24T03:29:43;9.93;;;4.98;;
61473;SDS011;53694;49.784;30.150;2023-06-24T03:30:44;10.58;;;4.29;;
61473;SDS011;53694;49.784;30.150;2023-06-24T03:31:46;10.01;;;4.43;;
61473;SDS011;53694;49.784;30.150;2023-06-24T03:32:47;13.04;;;4.20;;
61473;SDS011;53694;49.784;30.150;2023-06-24T03:33:49;8.34;;;4.31;;
61473;SDS011;53694;49.784;30.150;2023-06-24T03:34:50;11.69;;;4.49;;
61473;SDS011;53694;49.784;30.150;2023-06-24T03:35:52;9.21;;;4.25;;
61473;SDS011;53694;49.784;30.150;2023-06-24T03:36:54;12.25;;;4.58;;
61473;SDS011;53694;49.784;30.150;2023-06-24T03:37:55;10.65;;;5.08;;
61473;SDS011;53694;49.784;30.150;2023-06-24T03:38:57;9.00;;;4.34;;
61473;SDS011;53694;49.784;30.150;2023-06-24T03:39:58;9.59;;;4.84;;
61473;SDS011;53694;49.784;30.150;2023-06-24T03:41:00;10.48;;;5.03;;
61473;SDS011;53694;49.784;30.150;2023-06-24T03:42:01;9.34;;;4.84;;
61473;SDS011;53694;49.784;30.150;2023-06-24T03:43:03;12.57;;;4.76;;
61473;SDS011;53694;49.784;30.150;2023-06-24T03:44:04;10.40;;;5.06;;
61473;SDS011;53694;49.784;30.150;2023-06-24T03:45:06;10.71;;;4.73;;
61473;SDS011;53694;49.784;30.150;2023-06-24T03:46:08;7.74;;;4.07;;
61473;SDS011;53694;49.784;30.150;2023-06-24T03:47:10;9.69;;;4.14;;
61473;SDS011;53694;49.784;30.150;2023-06-24T03:48:11;11.29;;;4.31;;
61473;SDS011;53694;49.784;30.150;2023-06-24T03:49:13;8.96;;;3.72;;
61473;SDS011;53694;49.784;30.150;2023-06-24T03:50:15;9.57;;;4.21;;
61473;SDS011;53694;49.784;30.150;2023-06-24T03:51:16;9.96;;;4.17;;
61473;SDS011;53694;49.784;30.150;2023-06-24T03:52:18;8.01;;;3.73;;
61473;SDS011;53694;49.784;30.150;2023-06-24T03:53:19;9.86;;;4.00;;
61473;SDS011;53694;49.784;30.150;2023-06-24T03:54:21;9.99;;;4.23;;
61473;SDS011;53694;49.784;30.150;2023-06-24T03:55:22;10.14;;;4.75;;
61473;SDS011;53694;49.784;30.150;2023-06-24T03:56:24;10.94;;;4.86;;
61473;SDS011;53694;49.784;30.150;2023-06-24T03:57:25;12.52;;;5.21;;
61473;SDS011;53694;49.784;30.150;2023-06-24T03:58:27;11.66;;;4.86;;
61473;SDS011;53694;49.784;30.150;2023-06-24T03:59:28;10.25;;;5.01;;
61473;SDS011;53694;49.784;30.150;2023-06-24T04:00:30;11.36;;;4.86;;
61473;SDS011;53694;49.784;30.150;2023-06-24T04:01:32;10.33;;;4.51;;
61473;SDS011;53694;49.784;30.150;2023-06-24T04:02:33;11.69;;;5.10;;
61473;SDS011;53694;49.784;30.150;2023-06-24T04:03:35;13.90;;;5.22;;
61473;SDS011;53694;49.784;30.150;2023-06-24T04:04:36;13.00;;;5.51;;
61473;SDS011;53694;49.784;30.150;2023-06-24T04:05:38;14.49;;;8.06;;
61473;SDS011;53694;49.784;30.150;2023-06-24T04:06:40;16.01;;;4.69;;
61473;SDS011;53694;49.784;30.150;2023-06-24T04:07:41;14.98;;;7.68;;
61473;SDS011;53694;49.784;30.150;2023-06-24T04:08:43;23.33;;;14.33;;
61473;SDS011;53694;49.784;30.150;2023-06-24T04:09:44;12.89;;;6.40;;
61473;SDS011;53694;49.784;30.150;2023-06-24T04:10:46;11.39;;;5.66;;
61473;SDS011;53694;49.784;30.150;2023-06-24T04:11:47;10.11;;;4.99;;
61473;SDS011;53694;49.784;30.150;2023-06-24T04:12:49;8.41;;;4.67;;
61473;SDS011;53694;49.784;30.150;2023-06-24T04:13:50;9.21;;;4.67;;
61473;SDS011;53694;49.784;30.150;2023-06-24T04:14:52;12.07;;;5.29;;
61473;SDS011;53694;49.784;30.150;2023-06-24T04:15:53;9.27;;;4.66;;
61473;SDS011;53694;49.784;30.150;2023-06-24T04:16:55;10.79;;;4.06;;
61473;SDS011;53694;49.784;30.150;2023-06-24T04:17:56;11.83;;;4.66;;
61473;SDS011;53694;49.784;30.150;2023-06-24T04:18:58;9.86;;;4.64;;
61473;SDS011;53694;49.784;30.150;2023-06-24T04:20:00;13.53;;;5.08;;
61473;SDS011;53694;49.784;30.150;2023-06-24T04:21:01;12.11;;;5.59;;
61473;SDS011;53694;49.784;30.150;2023-06-24T04:22:03;9.73;;;4.79;;
61473;SDS011;53694;49.784;30.150;2023-06-24T04:23:04;12.65;;;5.64;;
61473;SDS011;53694;49.784;30.150;2023-06-24T04:24:06;10.91;;;5.09;;
61473;SDS011;53694;49.784;30.150;2023-06-24T04:25:08;12.39;;;4.49;;
61473;SDS011;53694;49.784;30.150;2023-06-24T04:26:10;12.35;;;5.01;;
61473;SDS011;53694;49.784;30.150;2023-06-24T04:27:12;13.04;;;5.70;;
61473;SDS011;53694;49.784;30.150;2023-06-24T04:28:13;10.34;;;4.51;;
61473;SDS011;53694;49.784;30.150;2023-06-24T04:29:15;12.86;;;5.10;;
61473;SDS011;53694;49.784;30.150;2023-06-24T04:30:17;10.25;;;5.05;;
61473;SDS011;53694;49.784;30.150;2023-06-24T04:31:19;14.04;;;5.47;;
61473;SDS011;53694;49.784;30.150;2023-06-24T04:32:20;14.86;;;5.08;;
61473;SDS011;53694;49.784;30.150;2023-06-24T04:33:22;8.99;;;4.41;;
61473;SDS011;53694;49.784;30.150;2023-06-24T04:34:23;11.23;;;4.73;;
61473;SDS011;53694;49.784;30.150;2023-06-24T04:35:25;11.09;;;4.91;;
61473;SDS011;53694;49.784;30.150;2023-06-24T04:36:26;12.56;;;5.30;;
61473;SDS011;53694;49.784;30.150;2023-06-24T04:37:28;8.84;;;4.11;;
61473;SDS011;53694;49.784;30.150;2023-06-24T04:38:29;9.83;;;4.51;;
61473;SDS011;53694;49.784;30.150;2023-06-24T04:39:31;11.03;;;4.57;;
61473;SDS011;53694;49.784;30.150;2023-06-24T04:40:32;8.86;;;4.68;;
61473;SDS011;53694;49.784;30.150;2023-06-24T04:41:34;10.21;;;4.85;;
61473;SDS011;53694;49.784;30.150;2023-06-24T04:42:35;12.29;;;4.62;;
61473;SDS011;53694;49.784;30.150;2023-06-24T04:43:37;9.69;;;4.90;;
61473;SDS011;53694;49.784;30.150;2023-06-24T04:44:38;10.59;;;4.41;;
61473;SDS011;53694;49.784;30.150;2023-06-24T04:45:40;10.80;;;4.74;;
61473;SDS011;53694;49.784;30.150;2023-06-24T04:46:41;10.51;;;4.84;;
61473;SDS011;53694;49.784;30.150;2023-06-24T04:47:43;10.34;;;4.86;;
61473;SDS011;53694;49.784;30.150;2023-06-24T04:48:44;8.79;;;4.44;;
61473;SDS011;53694;49.784;30.150;2023-06-24T04:49:46;9.51;;;4.89;;
61473;SDS011;53694;49.784;30.150;2023-06-24T04:50:47;9.68;;;4.21;;
61473;SDS011;53694;49.784;30.150;2023-06-24T04:51:49;9.08;;;3.89;;
61473;SDS011;53694;49.784;30.150;2023-06-24T04:52:53;9.40;;;4.61;;
61473;SDS011;53694;49.784;30.150;2023-06-24T04:53:55;11.24;;;4.69;;
61473;SDS011;53694;49.784;30.150;2023-06-24T04:54:57;11.09;;;4.33;;
61473;SDS011;53694;49.784;30.150;2023-06-24T04:55:58;11.14;;;4.01;;
61473;SDS011;53694;49.784;30.150;2023-06-24T04:57:00;8.87;;;4.26;;
61473;SDS011;53694;49.784;30.150;2023-06-24T04:58:02;8.70;;;5.01;;
61473;SDS011;53694;49.784;30.150;2023-06-24T04:59:03;11.07;;;4.20;;
61473;SDS011;53694;49.784;30.150;2023-06-24T05:00:05;12.79;;;4.16;;
61473;SDS011;53694;49.784;30.150;2023-06-24T05:01:07;8.34;;;4.35;;
61473;SDS011;53694;49.784;30.150;2023-06-24T05:02:09;14.34;;;4.08;;
61473;SDS011;53694;49.784;30.150;2023-06-24T05:03:10;9.91;;;4.09;;
61473;SDS011;53694;49.784;30.150;2023-06-24T05:04:12;10.08;;;4.46;;
61473;SDS011;53694;49.784;30.150;2023-06-24T05:05:13;10.71;;;4.08;;
61473;SDS011;53694;49.784;30.150;2023-06-24T05:06:15;8.84;;;3.62;;
61473;SDS011;53694;49.784;30.150;2023-06-24T05:07:17;10.16;;;3.80;;
61473;SDS011;53694;49.784;30.150;2023-06-24T05:08:19;10.25;;;3.99;;
61473;SDS011;53694;49.784;30.150;2023-06-24T05:09:20;8.91;;;4.22;;
61473;SDS011;53694;49.784;30.150;2023-06-24T05:10:22;9.52;;;3.79;;
61473;SDS011;53694;49.784;30.150;2023-06-24T05:11:23;12.91;;;4.12;;
61473;SDS011;53694;49.784;30.150;2023-06-24T05:12:25;13.11;;;4.16;;
61473;SDS011;53694;49.784;30.150;2023-06-24T05:13:27;12.61;;;4.24;;
61473;SDS011;53694;49.784;30.150;2023-06-24T05:14:29;11.85;;;4.17;;
61473;SDS011;53694;49.784;30.150;2023-06-24T05:15:30;10.59;;;4.44;;
61473;SDS011;53694;49.784;30.150;2023-06-24T05:16:32;10.46;;;4.19;;
61473;SDS011;53694;49.784;30.150;2023-06-24T05:17:33;9.79;;;3.87;;
61473;SDS011;53694;49.784;30.150;2023-06-24T05:18:35;11.09;;;4.17;;
61473;SDS011;53694;49.784;30.150;2023-06-24T05:19:36;9.31;;;4.06;;
61473;SDS011;53694;49.784;30.150;2023-06-24T05:20:38;10.10;;;4.16;;
61473;SDS011;53694;49.784;30.150;2023-06-24T05:21:39;13.91;;;4.61;;
61473;SDS011;53694;49.784;30.150;2023-06-24T05:22:41;11.21;;;4.71;;
61473;SDS011;53694;49.784;30.150;2023-06-24T05:23:42;9.50;;;4.31;;
61473;SDS011;53694;49.784;30.150;2023-06-24T05:24:44;11.24;;;4.53;;
61473;SDS011;53694;49.784;30.150;2023-06-24T05:25:45;10.24;;;4.43;;
61473;SDS011;53694;49.784;30.150;2023-06-24T05:26:48;8.86;;;4.06;;
61473;SDS011;53694;49.784;30.150;2023-06-24T05:27:50;10.43;;;4.29;;
61473;SDS011;53694;49.784;30.150;2023-06-24T05:28:52;11.23;;;4.41;;
61473;SDS011;53694;49.784;30.150;2023-06-24T05:29:53;12.59;;;4.38;;
61473;SDS011;53694;49.784;30.150;2023-06-24T05:30:55;10.83;;;4.59;;
61473;SDS011;53694;49.784;30.150;2023-06-24T05:31:57;11.13;;;4.87;;
61473;SDS011;53694;49.784;30.150;2023-06-24T05:32:58;9.20;;;4.44;;
61473;SDS011;53694;49.784;30.150;2023-06-24T05:34:00;10.04;;;4.69;;
61473;SDS011;53694;49.784;30.150;2023-06-24T05:35:01;8.35;;;3.81;;
61473;SDS011;53694;49.784;30.150;2023-06-24T05:36:03;8.95;;;4.25;;
61473;SDS011;53694;49.784;30.150;2023-06-24T05:37:05;12.01;;;4.48;;
61473;SDS011;53694;49.784;30.150;2023-06-24T05:38:06;10.39;;;4.61;;
61473;SDS011;53694;49.784;30.150;2023-06-24T05:39:08;13.11;;;5.10;;
61473;SDS011;53694;49.784;30.150;2023-06-24T05:40:10;11.07;;;4.32;;
61473;SDS011;53694;49.784;30.150;2023-06-24T05:41:12;12.46;;;4.33;;
61473;SDS011;53694;49.784;30.150;2023-06-24T05:42:13;11.44;;;4.46;;
61473;SDS011;53694;49.784;30.150;2023-06-24T05:43:15;8.95;;;4.29;;
61473;SDS011;53694;49.784;30.150;2023-06-24T05:44:16;23.26;;;5.59;;
61473;SDS011;53694;49.784;30.150;2023-06-24T05:45:18;8.40;;;3.58;;
61473;SDS011;53694;49.784;30.150;2023-06-24T05:46:20;10.66;;;4.11;;
61473;SDS011;53694;49.784;30.150;2023-06-24T05:47:21;8.53;;;4.09;;
61473;SDS011;53694;49.784;30.150;2023-06-24T05:48:23;8.02;;;3.63;;
61473;SDS011;53694;49.784;30.150;2023-06-24T05:49:24;8.41;;;3.86;;
61473;SDS011;53694;49.784;30.150;2023-06-24T05:50:26;16.81;;;4.85;;
61473;SDS011;53694;49.784;30.150;2023-06-24T05:51:27;12.54;;;4.18;;
61473;SDS011;53694;49.784;30.150;2023-06-24T05:52:29;13.99;;;4.31;;
61473;SDS011;53694;49.784;30.150;2023-06-24T05:53:30;10.29;;;4.41;;
61473;SDS011;53694;49.784;30.150;2023-06-24T05:54:32;13.01;;;4.09;;
61473;SDS011;53694;49.784;30.150;2023-06-24T05:55:34;10.14;;;4.10;;
61473;SDS011;53694;49.784;30.150;2023-06-24T05:56:35;12.36;;;4.16;;
61473;SDS011;53694;49.784;30.150;2023-06-24T05:57:37;12.80;;;4.29;;
61473;SDS011;53694;49.784;30.150;2023-06-24T05:58:38;12.64;;;4.46;;
61473;SDS011;53694;49.784;30.150;2023-06-24T05:59:40;9.74;;;4.51;;
61473;SDS011;53694;49.784;30.150;2023-06-24T06:00:41;10.43;;;4.03;;
61473;SDS011;53694;49.784;30.150;2023-06-24T06:01:43;11.38;;;4.04;;
61473;SDS011;53694;49.784;30.150;2023-06-24T06:02:44;11.49;;;4.71;;
61473;SDS011;53694;49.784;30.150;2023-06-24T06:03:46;11.48;;;4.10;;
61473;SDS011;53694;49.784;30.150;2023-06-24T06:04:47;10.80;;;4.26;;
61473;SDS011;53694;49.784;30.150;2023-06-24T06:05:49;7.79;;;4.06;;
61473;SDS011;53694;49.784;30.150;2023-06-24T06:06:51;12.21;;;4.34;;
61473;SDS011;53694;49.784;30.150;2023-06-24T06:07:52;10.70;;;4.54;;
61473;SDS011;53694;49.784;30.150;2023-06-24T06:08:54;12.58;;;4.80;;
61473;SDS011;53694;49.784;30.150;2023-06-24T06:09:55;11.99;;;4.48;;
61473;SDS011;53694;49.784;30.150;2023-06-24T06:10:57;12.27;;;4.46;;
61473;SDS011;53694;49.784;30.150;2023-06-24T06:11:58;13.06;;;4.53;;
61473;SDS011;53694;49.784;30.150;2023-06-24T06:13:00;11.00;;;4.22;;
61473;SDS011;53694;49.784;30.150;2023-06-24T06:14:01;8.49;;;3.98;;
61473;SDS011;53694;49.784;30.150;2023-06-24T06:15:03;14.29;;;4.36;;
61473;SDS011;53694;49.784;30.150;2023-06-24T06:16:05;12.65;;;4.07;;
61473;SDS011;53694;49.784;30.150;2023-06-24T06:17:06;10.89;;;4.50;;
61473;SDS011;53694;49.784;30.150;2023-06-24T06:18:08;17.56;;;5.61;;
61473;SDS011;53694;49.784;30.150;2023-06-24T06:19:09;12.81;;;4.69;;